Maria Dos Anxos — ECCL — position and weather

sailwx.info

Track history (hours):
 
Tides and Currents Weather Stations Pressure Air Temp Water Temp Dewpoint Dewpoint Depression Visibility Wind Speed Wind Dir Waves Ship Positions

Maria Dos Anxos

Last reported at 2018-Apr-24 22:47 UTC. Time now 2018-Apr-26 13:25 UTC.
Position N 43°54' W 007°43'.

Length 30 m; draft 4 m.

Type: Fishing. MMSI: 224081150.

Date/timePositionNaut miles runAvg speedWind from/ knotsBaromVisibWave heightAir tempDewpointWater temp
2018-Apr-24 22:47N 43°54' W 007°43'3 8.6
2018-Apr-24 22:28N 43°52' W 007°39'4 8.6
2018-Apr-24 22:00N 43°50' W 007°35'11 2.3
2018-Apr-24 17:17N 43°45' W 007°21'310.0
2018-Apr-24 16:59N 43°48' W 007°22'7 0.6
2018-Apr-24 04:04N 43°55' W 007°27'1 7.7
2018-Apr-24 03:56N 43°54' W 007°27'3 7.8
2018-Apr-24 03:30N 43°51' W 007°30'4 7.9
2018-Apr-24 03:00N 43°48' W 007°32'4 7.8
2018-Apr-24 02:30N 43°44' W 007°35'3 6.7
2018-Apr-24 02:00N 43°41' W 007°36'0 0.0
2018-Apr-24 01:28N 43°41' W 007°36'0 0.0
2018-Apr-24 01:00N 43°41' W 007°36'0 0.0
2018-Apr-24 00:29N 43°41' W 007°36'0 0.0
2018-Apr-24 00:00N 43°41' W 007°36'0 0.0
2018-Apr-23 23:30N 43°41' W 007°36'0 0.0
2018-Apr-23 22:59N 43°41' W 007°36'0 0.0
2018-Apr-23 22:30N 43°41' W 007°36'0 0.0
2018-Apr-23 22:00N 43°41' W 007°36'0 0.0
2018-Apr-23 21:30N 43°41' W 007°36'0 0.0
2018-Apr-23 21:00N 43°41' W 007°36'0 0.0
2018-Apr-23 20:30N 43°41' W 007°36'0 0.0
2018-Apr-23 20:00N 43°41' W 007°36'0 0.3
2018-Apr-23 19:30N 43°41' W 007°36'0 0.0
2018-Apr-23 19:00N 43°41' W 007°36'1 1.4
2018-Apr-23 18:30N 43°41' W 007°36'4 8.6
2018-Apr-23 18:00N 43°46' W 007°36'4 8.2
2018-Apr-23 17:30N 43°50' W 007°36'4 8.5
2018-Apr-23 17:00N 43°54' W 007°36'  
2018-Apr-17 19:38N 43°33' W 005°42'0 0.0
2018-Apr-17 19:30N 43°33' W 005°42'0 0.0
2018-Apr-17 18:59N 43°33' W 005°42'0 0.0
2018-Apr-17 18:30N 43°33' W 005°42'0 0.0
2018-Apr-17 18:00N 43°33' W 005°42'0 0.1
2018-Apr-17 17:27N 43°33' W 005°42'0 0.0
2018-Apr-17 16:38N 43°33' W 005°42'0 0.0
2018-Apr-17 16:29N 43°33' W 005°42'2 3.0
2018-Apr-17 15:56N 43°35' W 005°40'15 1.3
2018-Apr-17 03:45N 43°42' W 005°21'6 7.7
2018-Apr-17 02:56N 43°39' W 005°29'4 7.9
2018-Apr-17 02:26N 43°37' W 005°34'3 7.9
2018-Apr-17 02:00N 43°35' W 005°38'4 6.9
2018-Apr-17 01:30N 43°33' W 005°42'0 0.0
2018-Apr-17 00:59N 43°33' W 005°42'0 0.0
2018-Apr-16 20:20N 43°33' W 005°42'0 0.0
2018-Apr-16 20:00N 43°33' W 005°42'0 0.0
2018-Apr-16 19:30N 43°33' W 005°42'0 0.0
2018-Apr-16 19:00N 43°33' W 005°42'0 0.0
2018-Apr-16 18:30N 43°33' W 005°42'0 0.0
2018-Apr-16 18:00N 43°33' W 005°42'0 0.0
2018-Apr-16 17:29N 43°33' W 005°42'1 1.3
2018-Apr-16 16:59N 43°34' W 005°41'1 1.8
2018-Apr-16 16:25N 43°35' W 005°40'16 1.2
2018-Apr-16 03:37N 43°42' W 005°21'6 8.2
2018-Apr-16 02:55N 43°39' W 005°28'4 8.3
2018-Apr-16 02:30N 43°37' W 005°32'4 8.3
2018-Apr-16 02:00N 43°35' W 005°37'4 7.5
2018-Apr-16 01:30N 43°33' W 005°42'0 0.0
2018-Apr-16 01:00N 43°33' W 005°42'0 0.0
2018-Apr-16 00:30N 43°33' W 005°42'  
Track history (hours):
 
Tides and Currents Weather Stations Pressure Air Temp Water Temp Dewpoint Dewpoint Depression Visibility Wind Speed Wind Dir Waves Ship Positions

Maria Dos Anxos

Last reported at 2018-Apr-24 22:47 UTC. Time now 2018-Apr-26 13:25 UTC.
Position N 43°54' W 007°43'.

Length 30 m; draft 4 m.

Type: Fishing. MMSI: 224081150.

Date/timePositionNaut miles runAvg speedWind from/ knotsBaromVisibWave heightAir tempDewpointWater temp
2018-Apr-24 22:47N 43°54' W 007°43'3 8.6
2018-Apr-24 22:28N 43°52' W 007°39'4 8.6
2018-Apr-24 22:00N 43°50' W 007°35'11 2.3
2018-Apr-24 17:17N 43°45' W 007°21'310.0
2018-Apr-24 16:59N 43°48' W 007°22'7 0.6
2018-Apr-24 04:04N 43°55' W 007°27'1 7.7
2018-Apr-24 03:56N 43°54' W 007°27'3 7.8
2018-Apr-24 03:30N 43°51' W 007°30'4 7.9
2018-Apr-24 03:00N 43°48' W 007°32'4 7.8
2018-Apr-24 02:30N 43°44' W 007°35'3 6.7
2018-Apr-24 02:00N 43°41' W 007°36'0 0.0
2018-Apr-24 01:28N 43°41' W 007°36'0 0.0
2018-Apr-24 01:00N 43°41' W 007°36'0 0.0
2018-Apr-24 00:29N 43°41' W 007°36'0 0.0
2018-Apr-24 00:00N 43°41' W 007°36'0 0.0
2018-Apr-23 23:30N 43°41' W 007°36'0 0.0
2018-Apr-23 22:59N 43°41' W 007°36'0 0.0
2018-Apr-23 22:30N 43°41' W 007°36'0 0.0
2018-Apr-23 22:00N 43°41' W 007°36'0 0.0
2018-Apr-23 21:30N 43°41' W 007°36'0 0.0
2018-Apr-23 21:00N 43°41' W 007°36'0 0.0
2018-Apr-23 20:30N 43°41' W 007°36'0 0.0
2018-Apr-23 20:00N 43°41' W 007°36'0 0.3
2018-Apr-23 19:30N 43°41' W 007°36'0 0.0
2018-Apr-23 19:00N 43°41' W 007°36'1 1.4
2018-Apr-23 18:30N 43°41' W 007°36'4 8.6
2018-Apr-23 18:00N 43°46' W 007°36'4 8.2
2018-Apr-23 17:30N 43°50' W 007°36'4 8.5
2018-Apr-23 17:00N 43°54' W 007°36'  
2018-Apr-17 19:38N 43°33' W 005°42'0 0.0
2018-Apr-17 19:30N 43°33' W 005°42'0 0.0
2018-Apr-17 18:59N 43°33' W 005°42'0 0.0
2018-Apr-17 18:30N 43°33' W 005°42'0 0.0
2018-Apr-17 18:00N 43°33' W 005°42'0 0.1
2018-Apr-17 17:27N 43°33' W 005°42'0 0.0
2018-Apr-17 16:38N 43°33' W 005°42'0 0.0
2018-Apr-17 16:29N 43°33' W 005°42'2 3.0
2018-Apr-17 15:56N 43°35' W 005°40'15 1.3
2018-Apr-17 03:45N 43°42' W 005°21'6 7.7
2018-Apr-17 02:56N 43°39' W 005°29'4 7.9
2018-Apr-17 02:26N 43°37' W 005°34'3 7.9
2018-Apr-17 02:00N 43°35' W 005°38'4 6.9
2018-Apr-17 01:30N 43°33' W 005°42'0 0.0
2018-Apr-17 00:59N 43°33' W 005°42'0 0.0
2018-Apr-16 20:20N 43°33' W 005°42'0 0.0
2018-Apr-16 20:00N 43°33' W 005°42'0 0.0
2018-Apr-16 19:30N 43°33' W 005°42'0 0.0
2018-Apr-16 19:00N 43°33' W 005°42'0 0.0
2018-Apr-16 18:30N 43°33' W 005°42'0 0.0
2018-Apr-16 18:00N 43°33' W 005°42'0 0.0
2018-Apr-16 17:29N 43°33' W 005°42'1 1.3
2018-Apr-16 16:59N 43°34' W 005°41'1 1.8
2018-Apr-16 16:25N 43°35' W 005°40'16 1.2
2018-Apr-16 03:37N 43°42' W 005°21'6 8.2
2018-Apr-16 02:55N 43°39' W 005°28'4 8.3
2018-Apr-16 02:30N 43°37' W 005°32'4 8.3
2018-Apr-16 02:00N 43°35' W 005°37'4 7.5
2018-Apr-16 01:30N 43°33' W 005°42'0 0.0
2018-Apr-16 01:00N 43°33' W 005°42'0 0.0
2018-Apr-16 00:30N 43°33' W 005°42'  

Dump ship's entire track history